createdAt,value
2022-10-05T00:01:55.532Z,96152.34
2022-10-05T00:04:24.527Z,96144.59
2022-10-05T00:06:58.172Z,96155.22
2022-10-05T00:09:25.116Z,96158.47
2022-10-05T00:11:51.964Z,96146.38
2022-10-05T00:14:27.898Z,96141.44
2022-10-05T00:16:56.243Z,96147.63
2022-10-05T00:19:33.672Z,96148.31
2022-10-05T00:22:22.290Z,96152.88
2022-10-05T00:24:56.898Z,96156.13
2022-10-05T00:27:26.898Z,96154.38
2022-10-05T00:29:57.817Z,96149.22
2022-10-05T00:32:24.571Z,96143.56
2022-10-05T00:34:51.560Z,96134.66
2022-10-05T00:37:18.401Z,96139.19
2022-10-05T00:39:45.825Z,96114.59
2022-10-05T00:42:18.343Z,96114.88
2022-10-05T00:45:12.795Z,96110.88
2022-10-05T00:47:46.685Z,96105.06
2022-10-05T00:50:28.626Z,96102.47
2022-10-05T00:53:02.697Z,96107.81
2022-10-05T00:55:56.705Z,96101.34
2022-10-05T00:58:41.524Z,96094.41
2022-10-05T01:01:13.039Z,96095.19
2022-10-05T01:04:10.997Z,96097.13
2022-10-05T01:10:51.804Z,96104.44
2022-10-05T01:13:37.990Z,96108.31
2022-10-05T01:16:42.429Z,96105.59
2022-10-05T01:19:12.341Z,96104.63
2022-10-05T01:21:51.285Z,96102.53
2022-10-05T01:24:46.331Z,96101.22
2022-10-05T01:27:30.040Z,96098.97
2022-10-05T01:30:03.246Z,96086.03
2022-10-05T01:33:29.455Z,96089.75
2022-10-05T01:36:04.763Z,96099.28
2022-10-05T01:38:40.369Z,96099.94
2022-10-05T01:41:38.488Z,96104.31
2022-10-05T01:44:16.393Z,96097.97
2022-10-05T01:47:28.744Z,96094.06
2022-10-05T01:50:21.653Z,96093.75
2022-10-05T01:53:06.831Z,96080.66
2022-10-05T01:55:49.130Z,96082.13
2022-10-05T01:58:23.419Z,96090.66
2022-10-05T02:01:28.747Z,96090.66
2022-10-05T02:04:30.999Z,96095.66
2022-10-05T02:07:10.470Z,96103.78
2022-10-05T02:09:47.418Z,96098.28
2022-10-05T02:12:22.523Z,96090.78
2022-10-05T02:14:54.604Z,96089.03
2022-10-05T02:17:32.715Z,96100.81
2022-10-05T02:20:04.256Z,96094.03
2022-10-05T02:22:37.106Z,96089.19
2022-10-05T02:25:10.372Z,96095.16
2022-10-05T02:27:45.987Z,96092.28
2022-10-05T02:30:16.484Z,96089.34
2022-10-05T02:32:51.675Z,96084.66
2022-10-05T02:35:19.855Z,96082.44
2022-10-05T02:38:28.145Z,96084.81
2022-10-05T02:41:14.937Z,96076.78
2022-10-05T02:44:06.281Z,96077.91
2022-10-05T02:46:41.890Z,96065.13
2022-10-05T02:49:39.789Z,96067.22
2022-10-05T02:52:29.128Z,96055.94
2022-10-05T02:55:19.578Z,96062.72
2022-10-05T02:58:08.947Z,96051.72
2022-10-05T03:00:47.942Z,96049.78
2022-10-05T03:03:17.747Z,96053.81
2022-10-05T03:05:51.841Z,96058.34
2022-10-05T03:08:47.857Z,96053.94
2022-10-05T03:11:36.033Z,96057.81
2022-10-05T03:14:13.927Z,96054.41
2022-10-05T03:16:48.126Z,96055.72
2022-10-05T03:19:54.480Z,96049.56
2022-10-05T03:22:48.441Z,96045.53
2022-10-05T03:25:47.232Z,96043.59
2022-10-05T03:28:29.111Z,96058.47
2022-10-05T03:31:12.326Z,96050.69
2022-10-05T03:33:43.043Z,96045.84
2022-10-05T03:36:22.279Z,96049.25
2022-10-05T03:39:17.418Z,96053.28
2022-10-05T03:42:21.093Z,96048.28
2022-10-05T03:44:50.739Z,96058.28
2022-10-05T03:47:25.507Z,96052.97
2022-10-05T03:50:36.288Z,96059.44
2022-10-05T03:53:15.364Z,96050.06
2022-10-05T03:56:03.370Z,96054.94
2022-10-05T03:58:42.930Z,96060.25
2022-10-05T04:01:19.819Z,96063.81
2022-10-05T04:03:52.563Z,96060.44
2022-10-05T04:06:25.332Z,96062.53
2022-10-05T04:09:03.124Z,96057.84
2022-10-05T04:11:48.376Z,96056.03
2022-10-05T04:14:26.860Z,96051.34
2022-10-05T04:17:05.032Z,96051.06
2022-10-05T04:19:34.753Z,96046.69
2022-10-05T04:22:35.847Z,96050.69
2022-10-05T04:25:18.636Z,96045.03
2022-10-05T04:27:58.210Z,96047.50
2022-10-05T04:30:26.456Z,96050.25
2022-10-05T04:32:57.583Z,96042.31
2022-10-05T04:35:27.084Z,96043.94
2022-10-05T04:38:08.597Z,96038.09
2022-10-05T04:41:04.956Z,96037.59
2022-10-05T04:43:35.257Z,96042.94
2022-10-05T04:46:20.646Z,96039.25
2022-10-05T04:49:11.322Z,96037.97
2022-10-05T04:51:59.908Z,96045.88
2022-10-05T04:54:42.491Z,96037.16
2022-10-05T04:57:25.125Z,96037.81
2022-10-05T05:00:05.759Z,96027.28
2022-10-05T05:02:44.287Z,96029.38
2022-10-05T05:05:17.000Z,96039.56
2022-10-05T05:07:55.164Z,96036.00
2022-10-05T05:11:16.766Z,96036.19
2022-10-05T05:13:50.818Z,96029.06
2022-10-05T05:16:27.765Z,96034.84
2022-10-05T05:19:01.235Z,96029.53
2022-10-05T05:21:54.137Z,96024.03
2022-10-05T05:24:32.967Z,96030.16
2022-10-05T05:27:24.487Z,96022.25
2022-10-05T05:30:15.890Z,96025.00
2022-10-05T05:32:48.836Z,96024.34
2022-10-05T05:35:53.535Z,96021.13
2022-10-05T05:38:27.233Z,96018.38
2022-10-05T05:41:07.114Z,96023.88
2022-10-05T05:43:53.621Z,96018.69
2022-10-05T05:47:02.834Z,96021.13
2022-10-05T05:50:07.393Z,96027.09
2022-10-05T05:52:46.030Z,96015.13
2022-10-05T05:55:35.847Z,96024.19
2022-10-05T05:58:25.505Z,96023.06
2022-10-05T06:01:02.121Z,96019.84
2022-10-05T06:03:41.370Z,96020.00
2022-10-05T06:06:15.070Z,96027.28
2022-10-05T06:08:46.929Z,96034.91
2022-10-05T06:11:30.649Z,96027.78
2022-10-05T06:14:04.308Z,96028.75
2022-10-05T06:16:45.992Z,96028.41
2022-10-05T06:19:16.784Z,96031.16
2022-10-05T06:22:15.008Z,96035.38
2022-10-05T06:24:56.477Z,96035.56
2022-10-05T06:27:39.637Z,96031.50
2022-10-05T06:30:17.464Z,96027.78
2022-10-05T06:32:50.109Z,96033.63
2022-10-05T06:35:36.460Z,96037.81
2022-10-05T06:38:12.317Z,96036.19
2022-10-05T06:41:07.822Z,96039.44
2022-10-05T06:43:50.919Z,96040.56
2022-10-05T06:46:23.653Z,96045.91
2022-10-05T06:49:45.862Z,96035.56
2022-10-05T06:53:00.184Z,96047.69
2022-10-05T06:55:50.093Z,96036.69
2022-10-05T06:58:38.142Z,96037.97
2022-10-05T07:01:16.430Z,96031.97
2022-10-05T07:04:05.433Z,96036.66
2022-10-05T07:06:35.763Z,96031.81
2022-10-05T07:09:05.452Z,96035.88
2022-10-05T07:12:07.957Z,96038.44
2022-10-05T07:14:59.167Z,96043.63
2022-10-05T07:17:49.125Z,96035.53
2022-10-05T07:20:37.818Z,96035.53
2022-10-05T07:23:20.035Z,96034.72
2022-10-05T07:25:55.185Z,96035.53
2022-10-05T07:28:46.338Z,96037.97
2022-10-05T07:31:28.609Z,96046.22
2022-10-05T07:33:58.042Z,96048.16
2022-10-05T07:37:12.749Z,96049.13
2022-10-05T07:40:00.213Z,96048.63
2022-10-05T07:42:56.730Z,96046.69
2022-10-05T07:45:30.313Z,96052.06
2022-10-05T07:48:01.113Z,96048.19
2022-10-05T07:50:43.815Z,96047.03
2022-10-05T07:53:24.983Z,96048.34
2022-10-05T07:55:58.132Z,96051.25
2022-10-05T07:58:31.148Z,96047.69
2022-10-05T08:01:11.313Z,96048.47
2022-10-05T08:03:59.681Z,96054.13
2022-10-05T08:06:26.364Z,96041.19
2022-10-05T08:08:57.556Z,96049.09
2022-10-05T08:11:34.457Z,96048.78
2022-10-05T08:14:08.231Z,96043.56
2022-10-05T08:16:39.728Z,96046.78
2022-10-05T08:19:24.297Z,96047.25
2022-10-05T08:22:06.527Z,96041.25
2022-10-05T08:24:54.411Z,96038.91
2022-10-05T08:27:31.049Z,96043.78
2022-10-05T08:30:09.271Z,96043.75
2022-10-05T08:32:50.477Z,96041.84
2022-10-05T08:35:34.169Z,96042.63
2022-10-05T08:38:05.365Z,96045.25
2022-10-05T08:40:47.304Z,96044.13
2022-10-05T08:43:45.303Z,96049.19
2022-10-05T08:46:23.972Z,96053.81
2022-10-05T08:49:15.875Z,96043.94
2022-10-05T08:51:54.693Z,96051.09
2022-10-05T08:54:47.527Z,96053.00
2022-10-05T08:57:48.507Z,96051.69
2022-10-05T09:00:30.365Z,96042.06
2022-10-05T09:03:16.140Z,96043.47
2022-10-05T09:06:18.765Z,96039.72
2022-10-05T09:09:14.324Z,96054.09
2022-10-05T09:12:09.098Z,96044.09
2022-10-05T09:15:25.020Z,96051.63
2022-10-05T09:18:11.675Z,96054.66
2022-10-05T09:20:54.023Z,96056.19
2022-10-05T09:23:44.316Z,96050.28
2022-10-05T09:26:41.396Z,96048.06
2022-10-05T09:29:52.662Z,96051.22
2022-10-05T09:32:44.393Z,96046.09
2022-10-05T09:35:49.178Z,96057.69
2022-10-05T09:38:37.692Z,96059.28
2022-10-05T09:41:25.626Z,96049.06
2022-10-05T09:44:34.924Z,96039.94
2022-10-05T09:47:01.576Z,96041.41
2022-10-05T09:49:57.391Z,96053.31
2022-10-05T09:53:06.010Z,96042.75
2022-10-05T09:56:00.466Z,96036.69
2022-10-05T09:58:38.984Z,96043.53
2022-10-05T10:01:36.680Z,96038.03
2022-10-05T10:04:31.793Z,96044.13
2022-10-05T10:07:43.167Z,96054.19
2022-10-05T10:10:34.890Z,96051.00
2022-10-05T10:13:52.283Z,96030.66
2022-10-05T10:16:37.562Z,96042.00
2022-10-05T10:19:41.401Z,96043.88
2022-10-05T10:22:39.728Z,96043.66
2022-10-05T10:25:37.281Z,96044.13
2022-10-05T10:28:20.052Z,96043.59
2022-10-05T10:31:07.897Z,96051.06
2022-10-05T10:33:57.249Z,96051.16
2022-10-05T10:36:36.519Z,96050.75
2022-10-05T10:39:12.653Z,96049.16
2022-10-05T10:42:25.302Z,96048.84
2022-10-05T10:44:59.167Z,96056.06
2022-10-05T10:47:40.967Z,96055.38
2022-10-05T10:50:27.551Z,96052.84
2022-10-05T10:53:15.880Z,96051.44
2022-10-05T10:56:04.036Z,96054.66
2022-10-05T10:58:51.213Z,96057.56
2022-10-05T11:01:55.346Z,96046.88
2022-10-05T11:04:30.971Z,96035.75
2022-10-05T11:07:13.747Z,96032.09
2022-10-05T11:10:11.693Z,96038.34
2022-10-05T11:13:20.455Z,96034.69
2022-10-05T11:16:13.486Z,96033.97
2022-10-05T11:19:24.895Z,96027.06
2022-10-05T11:22:30.275Z,96025.78
2022-10-05T11:25:26.144Z,96033.50
2022-10-05T11:28:20.869Z,96027.94
2022-10-05T11:31:05.905Z,96026.44
2022-10-05T11:33:52.990Z,96033.72
2022-10-05T11:36:52.423Z,96025.06
2022-10-05T11:39:44.129Z,96011.31
2022-10-05T11:42:29.015Z,96016.91
2022-10-05T11:45:27.007Z,96019.81
2022-10-05T11:48:12.571Z,96020.50
2022-10-05T11:51:02.971Z,96019.88
2022-10-05T11:53:57.957Z,96023.41
2022-10-05T11:56:34.962Z,96013.13
2022-10-05T11:59:51.148Z,96016.56
2022-10-05T12:02:17.758Z,96003.00
2022-10-05T12:05:10.889Z,95992.41
2022-10-05T12:08:03.441Z,95990.78
2022-10-05T12:10:52.205Z,95990.16
2022-10-05T12:13:36.608Z,95991.97
2022-10-05T12:16:29.645Z,95981.06
2022-10-05T12:19:26.146Z,95984.53
2022-10-05T12:22:10.166Z,95980.09
2022-10-05T12:24:36.702Z,95980.72
2022-10-05T12:27:16.139Z,95972.56
2022-10-05T12:29:45.906Z,95966.31
2022-10-05T12:32:22.580Z,95966.38
2022-10-05T12:35:36.180Z,95957.03
2022-10-05T12:38:28.737Z,95950.31
2022-10-05T12:41:16.276Z,95943.75
2022-10-05T12:43:45.887Z,95945.66
2022-10-05T12:46:32.226Z,95943.03
2022-10-05T12:49:27.013Z,95939.25
2022-10-05T12:52:00.968Z,95938.56
2022-10-05T12:54:47.629Z,95924.34
2022-10-05T12:57:39.188Z,95922.66
2022-10-05T13:00:09.515Z,95908.25
2022-10-05T13:03:09.041Z,95916.41
2022-10-05T13:05:47.584Z,95913.06
2022-10-05T13:08:29.588Z,95914.66
2022-10-05T13:11:28.415Z,95911.66
2022-10-05T13:14:13.795Z,95915.84
2022-10-05T13:16:54.833Z,95911.28
2022-10-05T13:19:24.793Z,95913.06
2022-10-05T13:22:33.452Z,95903.25
2022-10-05T13:25:28.733Z,95908.44
2022-10-05T13:28:15.940Z,95901.94
2022-10-05T13:30:52.281Z,95906.97
2022-10-05T13:33:42.232Z,95905.41
2022-10-05T13:36:21.241Z,95901.41
2022-10-05T13:39:03.994Z,95902.72
2022-10-05T13:41:52.076Z,95894.69
2022-10-05T13:44:32.637Z,95896.19
2022-10-05T13:47:06.031Z,95887.03
2022-10-05T13:49:44.796Z,95906.56
2022-10-05T13:52:42.997Z,95902.63
2022-10-05T13:55:40.032Z,95894.66
2022-10-05T13:58:36.881Z,95903.66
2022-10-05T14:01:13.705Z,95900.50
2022-10-05T14:03:41.373Z,95902.84
2022-10-05T14:06:14.212Z,95897.53
2022-10-05T14:08:51.636Z,95899.78
2022-10-05T14:11:26.920Z,95889.81
2022-10-05T14:14:01.724Z,95893.81
2022-10-05T14:16:29.158Z,95887.81
2022-10-05T14:19:15.767Z,95892.94
2022-10-05T14:21:55.205Z,95889.94
2022-10-05T14:24:45.900Z,95891.09
2022-10-05T14:27:26.579Z,95900.50
2022-10-05T14:30:19.123Z,95887.03
2022-10-05T14:32:50.704Z,95887.53
2022-10-05T14:35:23.245Z,95876.31
2022-10-05T14:37:56.339Z,95883.25
2022-10-05T14:40:30.756Z,95883.09
2022-10-05T14:42:59.995Z,95873.63
2022-10-05T14:45:30.336Z,95879.09
2022-10-05T14:48:01.860Z,95880.09
2022-10-05T14:50:33.644Z,95870.81
2022-10-05T14:53:03.112Z,95875.44
2022-10-05T14:55:52.096Z,95882.25
2022-10-05T14:58:35.203Z,95869.38
2022-10-05T15:01:17.873Z,95881.69
2022-10-05T15:04:18.048Z,95897.59
2022-10-05T15:06:58.531Z,95897.56
2022-10-05T15:09:30.015Z,95892.72
2022-10-05T15:12:00.145Z,95897.47
2022-10-05T15:14:32.612Z,95898.78
2022-10-05T15:17:12.923Z,95898.50
2022-10-05T15:19:52.782Z,95890.53
2022-10-05T15:22:25.791Z,95899.44
2022-10-05T15:25:13.843Z,95903.28
2022-10-05T15:27:59.647Z,95913.34
2022-10-05T15:30:26.488Z,95903.94
2022-10-05T15:33:19.492Z,95913.34
2022-10-05T15:36:06.553Z,95915.75
2022-10-05T15:38:59.536Z,95914.63
2022-10-05T15:42:00.282Z,95910.66
2022-10-05T15:44:39.289Z,95923.69
2022-10-05T15:47:19.254Z,95915.28
2022-10-05T15:50:24.305Z,95924.88
2022-10-05T15:52:59.504Z,95921.31
2022-10-05T15:55:40.476Z,95925.47
2022-10-05T15:58:31.589Z,95923.00
2022-10-05T16:01:10.240Z,95937.28
2022-10-05T16:03:42.797Z,95950.78
2022-10-05T16:06:50.987Z,95938.94
2022-10-05T16:09:33.403Z,95947.19
2022-10-05T16:12:38.520Z,95946.31
2022-10-05T16:15:34.681Z,95959.34
2022-10-05T16:18:31.312Z,95954.50
2022-10-05T16:21:25.946Z,95957.38
2022-10-05T16:23:55.771Z,95951.19
2022-10-05T16:26:31.443Z,95952.31
2022-10-05T16:29:13.499Z,95954.31
2022-10-05T16:32:06.293Z,95966.78
2022-10-05T16:34:36.030Z,95972.22
2022-10-05T16:37:23.759Z,95981.00
2022-10-05T16:40:28.657Z,95973.56
2022-10-05T16:43:10.510Z,95969.63
2022-10-05T16:46:30.907Z,95987.38
2022-10-05T16:49:06.612Z,95987.53
2022-10-05T16:51:46.987Z,95987.19
2022-10-05T16:54:38.412Z,95992.94
2022-10-05T16:57:25.496Z,96003.03
2022-10-05T17:00:25.768Z,96002.53
2022-10-05T17:03:22.195Z,96004.56
2022-10-05T17:06:34.971Z,96001.44
2022-10-05T17:09:29.361Z,95998.84
2022-10-05T17:12:38.032Z,96013.72
2022-10-05T17:15:10.747Z,96016.88
2022-10-05T17:17:43.388Z,96020.13
2022-10-05T17:20:52.420Z,96025.03
2022-10-05T17:24:20.212Z,96016.72
2022-10-05T17:27:17.838Z,96037.28
2022-10-05T17:30:32.145Z,96053.81
2022-10-05T17:33:14.813Z,96052.47
2022-10-05T17:35:53.547Z,96034.16
2022-10-05T17:38:30.312Z,96041.66
2022-10-05T17:41:00.153Z,96042.91
2022-10-05T17:43:31.380Z,96047.66
2022-10-05T17:46:06.898Z,96061.31
2022-10-05T17:48:44.277Z,96071.31
2022-10-05T17:51:50.565Z,96073.09
2022-10-05T17:54:40.112Z,96078.19
2022-10-05T17:57:06.912Z,96096.63
2022-10-05T17:59:44.577Z,96101.88
2022-10-05T18:02:30.516Z,96122.63
2022-10-05T18:05:06.061Z,96133.59
2022-10-05T18:07:35.070Z,96130.13
2022-10-05T18:10:16.911Z,96134.75
2022-10-05T18:13:41.613Z,96138.00
2022-10-05T18:16:10.570Z,96139.53
2022-10-05T18:18:43.469Z,96156.84
2022-10-05T18:21:29.000Z,96153.38
2022-10-05T18:23:59.026Z,96157.84
2022-10-05T18:26:52.085Z,96157.84
2022-10-05T18:29:41.567Z,96160.50
2022-10-05T18:32:20.326Z,96169.22
2022-10-05T18:35:07.298Z,96156.66
2022-10-05T18:37:56.055Z,96166.81
2022-10-05T18:40:30.231Z,96172.78
2022-10-05T18:43:14.696Z,96167.72
2022-10-05T18:46:14.833Z,96175.19
2022-10-05T18:48:56.253Z,96163.09
2022-10-05T18:51:55.880Z,96159.88
2022-10-05T18:54:55.147Z,96155.94
2022-10-05T18:57:45.848Z,96155.34
2022-10-05T19:00:26.209Z,96166.63
2022-10-05T19:02:53.221Z,96174.44
2022-10-05T19:05:49.313Z,96180.56
2022-10-05T19:08:46.675Z,96179.28
2022-10-05T19:11:23.273Z,96185.97
2022-10-05T19:14:10.388Z,96184.22
2022-10-05T19:16:58.555Z,96193.41
2022-10-05T19:19:40.030Z,96198.28
2022-10-05T19:22:15.833Z,96211.91
2022-10-05T19:24:51.849Z,96200.53
2022-10-05T19:27:37.241Z,96210.22
2022-10-05T19:30:18.876Z,96203.44
2022-10-05T19:33:07.462Z,96217.25
2022-10-05T19:35:46.128Z,96209.63
2022-10-05T19:38:37.174Z,96212.09
2022-10-05T19:41:22.745Z,96216.13
2022-10-05T19:44:23.433Z,96212.59
2022-10-05T19:46:52.165Z,96200.41
2022-10-05T19:49:44.100Z,96211.91
2022-10-05T19:52:26.617Z,96210.44
2022-10-05T19:55:25.406Z,96224.13
2022-10-05T19:57:54.477Z,96223.47
2022-10-05T20:00:25.732Z,96236.59
2022-10-05T20:03:09.312Z,96228.81
2022-10-05T20:05:36.381Z,96233.56
2022-10-05T20:08:05.711Z,96236.34
2022-10-05T20:10:32.704Z,96242.69
2022-10-05T20:13:04.966Z,96234.22
2022-10-05T20:15:53.194Z,96240.25
2022-10-05T20:19:10.773Z,96243.78
2022-10-05T20:21:46.489Z,96247.81
2022-10-05T20:24:20.253Z,96257.84
2022-10-05T20:27:02.148Z,96247.75
2022-10-05T20:29:33.692Z,96244.28
2022-10-05T20:32:02.453Z,96259.75
2022-10-05T20:34:29.067Z,96257.91
2022-10-05T20:36:55.814Z,96256.28
2022-10-05T20:39:23.526Z,96253.41
2022-10-05T20:41:50.602Z,96269.22
2022-10-05T20:44:17.175Z,96260.69
2022-10-05T20:46:46.666Z,96262.41
2022-10-05T20:49:13.399Z,96254.91
2022-10-05T20:51:40.336Z,96254.78
2022-10-05T20:54:08.034Z,96269.09
2022-10-05T20:56:35.264Z,96261.50
2022-10-05T20:59:01.869Z,96268.22
2022-10-05T21:01:29.983Z,96254.81
2022-10-05T21:03:56.700Z,96267.84
2022-10-05T21:06:28.729Z,96268.88
2022-10-05T21:08:55.495Z,96271.88
2022-10-05T21:11:22.280Z,96278.19
2022-10-05T21:13:53.745Z,96285.69
2022-10-05T21:16:23.248Z,96284.50
2022-10-05T21:18:49.946Z,96283.38
2022-10-05T21:21:17.621Z,96298.50
2022-10-05T21:23:45.543Z,96295.03
2022-10-05T21:26:12.873Z,96294.00
2022-10-05T21:28:40.235Z,96320.34
2022-10-05T21:31:08.410Z,96301.25
2022-10-05T21:33:37.239Z,96311.53
2022-10-05T21:36:04.466Z,96321.59
2022-10-05T21:38:31.256Z,96329.78
2022-10-05T21:40:58.037Z,96326.53
2022-10-05T21:43:25.482Z,96324.56
2022-10-05T21:45:54.740Z,96326.41
2022-10-05T21:48:21.802Z,96318.44
2022-10-05T21:50:48.429Z,96328.72
2022-10-05T21:53:21.302Z,96335.41
2022-10-05T21:55:50.226Z,96340.25
2022-10-05T21:58:19.216Z,96338.81
2022-10-05T22:00:46.014Z,96339.50
2022-10-05T22:03:12.827Z,96316.69
2022-10-05T22:05:40.726Z,96342.44
2022-10-05T22:08:09.094Z,96343.59
2022-10-05T22:10:35.808Z,96349.13
2022-10-05T22:13:04.301Z,96349.13
2022-10-05T22:15:31.733Z,96354.75
2022-10-05T22:17:59.756Z,96351.41
2022-10-05T22:20:27.370Z,96338.63
2022-10-05T22:22:54.169Z,96343.59
2022-10-05T22:25:21.844Z,96350.28
2022-10-05T22:27:50.221Z,96360.19
2022-10-05T22:30:18.553Z,96354.53
2022-10-05T22:32:45.394Z,96355.81
2022-10-05T22:35:12.426Z,96365.66
2022-10-05T22:37:39.401Z,96368.44
2022-10-05T22:40:08.026Z,96390.00
2022-10-05T22:42:35.018Z,96390.44
2022-10-05T22:45:01.782Z,96395.75
2022-10-05T22:47:28.729Z,96402.31
2022-10-05T22:49:55.740Z,96422.53
2022-10-05T22:52:22.433Z,96442.25
2022-10-05T22:54:49.114Z,96453.25
2022-10-05T22:57:16.003Z,96452.84
2022-10-05T22:59:42.661Z,96453.03
2022-10-05T23:02:09.496Z,96456.00
2022-10-05T23:04:36.088Z,96473.81
2022-10-05T23:07:03.073Z,96484.50
2022-10-05T23:09:29.650Z,96470.31
2022-10-05T23:11:56.642Z,96474.97
2022-10-05T23:14:23.838Z,96501.06
2022-10-05T23:16:50.629Z,96507.00
2022-10-05T23:19:17.325Z,96501.00
2022-10-05T23:21:44.084Z,96509.56
2022-10-05T23:24:10.609Z,96506.75
2022-10-05T23:26:37.144Z,96501.75
2022-10-05T23:29:03.918Z,96508.56
2022-10-05T23:31:32.033Z,96522.16
2022-10-05T23:33:58.756Z,96510.78
2022-10-05T23:36:28.290Z,96515.97
2022-10-05T23:38:55.054Z,96518.53
2022-10-05T23:41:21.775Z,96522.41
2022-10-05T23:43:49.041Z,96520.66
2022-10-05T23:46:17.762Z,96524.19
2022-10-05T23:48:44.453Z,96525.66
2022-10-05T23:51:13.162Z,96524.19
2022-10-05T23:53:39.950Z,96525.63
2022-10-05T23:56:06.872Z,96531.00
2022-10-05T23:58:33.488Z,96526.97
